Timmins/Victor M. Power
CYTS : rendu visible

Aérodrome :











RETROUVEZ-NOUS SUR...

 
LOGIN :

S'inscrire | Disclaimer

   EN    FR    IT 

 









Légende :    VFR   VFR Marginal   IFR   IFR Intensif   IFR Très Intensif
Visi : 
Plafond : 
>= 8 km
>= 3000ft
5 à 8 km
1000 à 3000 ft
1500m à 5 km
500 à 1000 ft
800 à 1500m
200 à 500 ft
< 800m
< 200 ft
Symboles :   Orages  Brouillard  Fortes neiges  Fortes précipitations  Vent > 20 kt






- Altitude de l'aérodrome : 967 ft
- Code IATA : YTS


CYTS - Timmins/Victor M. Power

DERNIER METAR :
  • 091700Z 17008KT 160V240 15SM FEW018 SCT180 24/18 A2995 RMK CF1CI4 CF TR SLP144 DENSITY ALT 2200FT

METARs EXPIRÉS :
  • 091600Z 17008KT 150V220 15SM FEW016 FEW200 22/19 A2995 RMK SC1CI1 SLP147 DENSITY ALT 2000FT
  • 091536Z 21006KT 160V250 15SM FEW014 SCT200 21/17 A2996 RMK SC2CI1 SLP150 DENSITY ALT 1900FT
  • 091500Z 20006KT 15SM SCT004 BKN010 BKN200 20/17 A2996 RMK SC3SC4CI1 CI TR SLP150 DENSITY ALT 1700FT
  • 091455Z 20008KT 140V220 15SM FEW003 BKN008 19/17 A2996 RMK SC2SC5 SLP150 DENSITY ALT 1700FT

TAF TAF CYTS
Valide du 09 à 14h jusqu'au 10 à 02h UTC


091346Z 0914/1002 VRB03KT P6SM SCT003 BKN020
TEMPO 0914/0915 BKN003
FM091500 VRB03KT P6SM BKN020
TEMPO 0915/0916 BKN025
FM091600 23006KT P6SM SCT030
BECMG 1000/1002 VRB03KT RMK NXT FCST BY 092000Z
FIR CZYZ / Amérique du Nord



MET'MAP, la Météo Aéronautique d'un coup d'oeil ! - Copyright ORBIFLY Décembre 2007 - Disclaimer

ORBIFLY MET'MAP TEAM :

Programmation & Développement : Alexandra Zaïnal
Sur une idée originale de : Baudouin d'Aumeries
Assistance à la programmation : Marc-Olivier Méhu
Soutien technique & logistique : Manuel Goepfert

Contact : metmap@orbifly.com




SOURCES & CREDITS :

   NOAA       Earth
Advisory